Time;durP1;ratioP1;P1;durP2;ratioP2;P2;SDS_P1;SDS_P2;PMS_P1;PMS_P2;Temp;Humidity;BMP_temperature;BMP_pressure;BME280_temperature;BME280_humidity;BME280_pressure;Samples;Min_cycle;Max_cycle;Signal;HPM_P1;HPM_P2
2023/08/15 00:00:19;;;;;;;7.10;5.95;;;17.90;99.90;;;;;;4974700;28;20090;-81
2023/08/15 00:02:44;;;;;;;7.07;6.38;;;17.90;99.90;;;;;;4980367;28;20085;-81
2023/08/15 00:05:10;;;;;;;7.40;6.07;;;17.90;99.90;;;;;;4984179;28;20057;-81
2023/08/15 00:07:36;;;;;;;7.72;6.55;;;17.90;99.90;;;;;;4977882;28;20058;-81
2023/08/15 00:10:01;;;;;;;8.98;6.45;;;17.90;99.90;;;;;;4983388;28;20047;-81
2023/08/15 00:12:27;;;;;;;8.43;6.38;;;17.80;99.90;;;;;;4987260;28;20050;-81
2023/08/15 00:14:52;;;;;;;9.90;7.03;;;17.80;99.90;;;;;;4985572;28;20065;-81
2023/08/15 00:17:18;;;;;;;11.68;7.70;;;17.80;99.90;;;;;;4985292;28;20047;-81
2023/08/15 00:19:43;;;;;;;8.43;7.07;;;17.80;99.90;;;;;;4968946;28;20042;-81
2023/08/15 00:22:09;;;;;;;9.45;6.57;;;17.70;99.90;;;;;;4987280;28;20053;-81
2023/08/15 00:24:34;;;;;;;11.07;6.90;;;17.70;99.90;;;;;;4985434;28;20404;-81
2023/08/15 00:27:00;;;;;;;8.95;6.50;;;17.70;99.90;;;;;;4988107;28;20046;-81
2023/08/15 00:29:26;;;;;;;8.70;6.65;;;17.60;99.90;;;;;;4967921;28;20049;-81
2023/08/15 00:31:51;;;;;;;8.05;7.07;;;17.70;99.90;;;;;;4984886;28;20137;-81
2023/08/15 00:34:17;;;;;;;9.43;6.60;;;17.60;99.90;;;;;;4984933;28;20035;-81
2023/08/15 00:36:42;;;;;;;10.15;7.40;;;17.60;99.90;;;;;;4971955;28;20035;-81
2023/08/15 00:39:08;;;;;;;9.20;7.25;;;17.60;99.90;;;;;;4999056;28;20041;-81
2023/08/15 00:41:33;;;;;;;8.82;7.18;;;17.50;99.90;;;;;;4990776;28;20062;-81
2023/08/15 00:43:59;;;;;;;7.97;7.10;;;17.50;99.90;;;;;;4990657;28;20062;-81
2023/08/15 00:46:27;;;;;;;14.98;8.13;;;17.50;99.90;;;;;;4989731;28;20578;-81
2023/08/15 00:48:54;;;;;;;11.82;7.38;;;17.50;99.90;;;;;;4991135;28;20689;-81
2023/08/15 00:51:20;;;;;;;11.27;7.10;;;17.50;99.90;;;;;;4989813;28;20059;-81
2023/08/15 00:53:46;;;;;;;12.13;7.72;;;17.50;99.90;;;;;;4990862;28;20065;-81
2023/08/15 00:56:12;;;;;;;10.23;7.78;;;17.70;99.90;;;;;;4990542;28;20049;-81
2023/08/15 00:58:38;;;;;;;10.77;8.02;;;17.50;99.90;;;;;;4990019;28;20054;-81
2023/08/15 01:01:04;;;;;;;10.57;8.05;;;17.40;99.90;;;;;;4987223;28;20524;-81
2023/08/15 01:03:30;;;;;;;13.95;9.05;;;17.50;99.90;;;;;;5003013;28;20065;-81
2023/08/15 01:06:00;;;;;;;10.95;8.80;;;17.50;99.90;;;;;;4986643;28;20057;-81
2023/08/15 01:08:25;;;;;;;11.05;8.57;;;17.50;99.90;;;;;;4971966;28;20498;-81
2023/08/15 01:10:51;;;;;;;14.15;8.73;;;17.50;99.90;;;;;;4973325;28;20053;-81
2023/08/15 01:13:28;;;;;;;9.82;8.68;;;17.50;99.90;;;;;;4970889;28;20085;-81
2023/08/15 01:15:53;;;;;;;12.27;9.32;;;17.60;99.90;;;;;;4983173;28;20453;-80
2023/08/15 01:18:30;;;;;;;13.93;9.20;;;17.50;99.90;;;;;;4990002;28;20160;-81
2023/08/15 01:20:57;;;;;;;10.98;8.90;;;17.50;99.90;;;;;;4988656;28;20046;-81
2023/08/15 01:23:53;;;;;;;9.93;8.88;;;17.50;99.90;;;;;;4989658;28;20050;-81
2023/08/15 01:26:18;;;;;;;11.95;9.93;;;17.50;99.90;;;;;;4954812;28;20084;-81
2023/08/15 01:28:44;;;;;;;11.50;10.32;;;17.50;99.90;;;;;;4988659;28;20081;-81
2023/08/15 01:31:26;;;;;;;14.02;9.70;;;17.50;99.90;;;;;;4986369;28;20049;-81
2023/08/15 01:34:11;;;;;;;10.63;9.30;;;17.50;99.90;;;;;;4989680;28;20499;-81
2023/08/15 01:36:41;;;;;;;15.20;9.82;;;17.40;99.90;;;;;;4988853;28;20042;-81
2023/08/15 01:39:07;;;;;;;11.60;8.95;;;17.50;99.90;;;;;;4983363;28;20515;-82
2023/08/15 01:41:37;;;;;;;13.85;10.40;;;17.40;99.90;;;;;;4984766;28;20078;-80
2023/08/15 01:44:06;;;;;;;11.68;9.60;;;17.40;99.90;;;;;;4971749;28;20058;-81
2023/08/15 01:46:32;;;;;;;11.15;9.40;;;17.40;99.90;;;;;;4988533;28;20811;-81
2023/08/15 01:48:59;;;;;;;11.07;9.57;;;17.40;99.90;;;;;;4989901;28;20042;-81
2023/08/15 01:51:25;;;;;;;13.52;10.32;;;17.40;99.90;;;;;;4981952;28;20046;-81
2023/08/15 01:53:51;;;;;;;13.27;9.88;;;17.40;99.90;;;;;;4987274;28;20056;-81
2023/08/15 01:56:16;;;;;;;12.35;11.02;;;17.40;99.90;;;;;;4989051;28;20043;-81
2023/08/15 01:58:42;;;;;;;11.98;10.02;;;17.30;99.90;;;;;;4972306;28;20055;-81
2023/08/15 02:01:07;;;;;;;11.35;10.20;;;17.40;99.90;;;;;;4972570;28;20050;-81
2023/08/15 02:03:33;;;;;;;13.70;10.68;;;17.40;99.90;;;;;;4987752;28;20062;-81
2023/08/15 02:05:59;;;;;;;12.18;10.88;;;17.40;99.90;;;;;;4988991;28;20030;-81
2023/08/15 02:08:24;;;;;;;12.52;9.88;;;17.40;99.90;;;;;;4988134;28;20389;-81
2023/08/15 02:10:53;;;;;;;11.73;10.52;;;17.40;99.90;;;;;;4974666;28;20081;-80
2023/08/15 02:13:18;;;;;;;12.52;11.25;;;17.40;99.90;;;;;;4989383;28;20086;-81
2023/08/15 02:15:44;;;;;;;13.38;10.95;;;17.50;99.90;;;;;;4989190;28;20520;-81
2023/08/15 02:18:10;;;;;;;17.15;10.75;;;17.50;99.90;;;;;;4987952;28;20045;-81
2023/08/15 02:20:36;;;;;;;13.00;10.93;;;17.50;99.90;;;;;;4989036;28;20154;-81
2023/08/15 02:23:02;;;;;;;13.55;11.10;;;17.50;99.90;;;;;;4988094;28;20129;-81
2023/08/15 02:25:28;;;;;;;15.70;11.40;;;17.50;99.90;;;;;;4987643;28;20117;-81
2023/08/15 02:27:53;;;;;;;13.65;10.95;;;17.50;99.90;;;;;;4987213;28;20039;-81
2023/08/15 02:30:19;;;;;;;13.02;10.20;;;17.50;99.90;;;;;;4979249;28;20552;-80
2023/08/15 02:32:44;;;;;;;15.02;11.20;;;17.50;99.90;;;;;;4986477;28;20042;-81
2023/08/15 02:35:11;;;;;;;14.63;11.50;;;17.50;99.90;;;;;;4971335;28;20050;-81
2023/08/15 02:37:37;;;;;;;14.25;11.90;;;17.20;99.90;;;;;;4988511;28;20400;-81
2023/08/15 02:40:06;;;;;;;14.57;11.57;;;17.50;99.90;;;;;;4987014;28;20046;-81
2023/08/15 02:42:33;;;;;;;14.02;11.88;;;17.50;99.90;;;;;;4987125;28;20050;-81
2023/08/15 02:44:59;;;;;;;16.73;12.75;;;17.50;99.90;;;;;;4987928;28;20050;-81
2023/08/15 02:47:25;;;;;;;14.85;13.00;;;17.50;99.90;;;;;;4988280;28;20213;-81
2023/08/15 02:49:51;;;;;;;14.50;12.93;;;17.50;99.90;;;;;;4988133;28;20126;-80
2023/08/15 02:52:16;;;;;;;15.98;12.20;;;17.70;99.90;;;;;;4989079;28;20053;-80
2023/08/15 02:54:42;;;;;;;14.63;13.13;;;17.60;99.90;;;;;;4988127;28;20078;-81
2023/08/15 02:57:08;;;;;;;15.52;12.63;;;17.60;99.90;;;;;;4989277;28;20109;-80
2023/08/15 02:59:33;;;;;;;13.48;12.15;;;17.60;99.90;;;;;;4986378;28;20050;-81
2023/08/15 03:01:59;;;;;;;13.15;11.80;;;17.60;99.90;;;;;;4986864;28;20046;-80
2023/08/15 03:04:24;;;;;;;13.45;12.05;;;17.60;99.90;;;;;;4987627;28;20043;-81
2023/08/15 03:06:50;;;;;;;14.38;12.88;;;17.60;99.90;;;;;;4988714;28;20050;-81
2023/08/15 03:09:16;;;;;;;13.82;12.35;;;17.60;99.90;;;;;;4988070;28;20090;-81
2023/08/15 03:11:42;;;;;;;14.25;12.52;;;17.60;99.90;;;;;;4989315;28;20057;-81
2023/08/15 03:14:08;;;;;;;14.25;12.57;;;17.60;99.90;;;;;;4970632;28;20050;-81
2023/08/15 03:16:34;;;;;;;16.67;13.73;;;17.60;99.90;;;;;;4972050;28;20113;-80
2023/08/15 03:18:59;;;;;;;16.35;14.10;;;17.60;99.90;;;;;;4979847;28;20122;-81
2023/08/15 03:21:25;;;;;;;17.63;15.13;;;17.70;99.90;;;;;;4987592;28;20062;-81
2023/08/15 03:23:50;;;;;;;16.23;14.43;;;17.70;99.90;;;;;;4986845;28;20086;-81
2023/08/15 03:26:16;;;;;;;17.75;14.48;;;17.70;99.90;;;;;;4986492;28;20543;-81
2023/08/15 03:28:42;;;;;;;17.23;15.48;;;17.70;99.90;;;;;;4988276;28;20042;-81
2023/08/15 03:31:10;;;;;;;17.77;15.35;;;17.80;99.90;;;;;;4983694;28;20050;-81
2023/08/15 03:33:36;;;;;;;17.35;15.02;;;17.80;99.90;;;;;;4988023;28;20404;-81
2023/08/15 03:36:02;;;;;;;16.92;15.10;;;17.80;99.90;;;;;;4987518;28;20050;-81
2023/08/15 03:38:28;;;;;;;18.75;15.65;;;17.90;99.90;;;;;;4985379;28;20042;-81
2023/08/15 03:41:05;;;;;;;19.38;17.33;;;18.00;99.90;;;;;;4986976;28;20113;-81
2023/08/15 03:43:32;;;;;;;18.10;16.17;;;18.00;99.90;;;;;;4975423;28;20509;-81
2023/08/15 03:45:58;;;;;;;18.38;16.27;;;18.00;99.90;;;;;;4982323;28;20612;-80
2023/08/15 03:48:24;;;;;;;17.90;16.10;;;18.00;99.90;;;;;;4987127;28;20125;-80
2023/08/15 03:50:52;;;;;;;21.48;17.27;;;18.10;99.90;;;;;;4987373;28;20595;-81
2023/08/15 03:53:17;;;;;;;17.55;15.75;;;18.10;99.90;;;;;;4986080;28;20472;-80
2023/08/15 03:55:43;;;;;;;16.92;14.15;;;18.10;99.90;;;;;;4985859;28;20038;-81
2023/08/15 03:58:08;;;;;;;17.30;15.25;;;18.10;99.90;;;;;;4975780;28;20065;-80
2023/08/15 04:00:34;;;;;;;17.85;16.02;;;18.10;99.90;;;;;;4988084;28;20042;-81
2023/08/15 04:02:59;;;;;;;15.80;14.10;;;18.10;99.90;;;;;;4987471;28;20053;-81
2023/08/15 04:05:26;;;;;;;16.90;14.80;;;18.10;99.90;;;;;;4987760;28;20047;-80
2023/08/15 04:07:51;;;;;;;17.10;15.32;;;18.10;99.90;;;;;;4988483;28;20117;-80
2023/08/15 04:10:17;;;;;;;16.75;15.10;;;18.10;99.90;;;;;;4984120;28;20117;-81
2023/08/15 04:12:44;;;;;;;17.63;15.88;;;18.10;99.90;;;;;;4977171;28;20050;-82
2023/08/15 04:15:10;;;;;;;17.40;15.55;;;18.20;99.90;;;;;;5001158;28;20113;-81
2023/08/15 04:17:36;;;;;;;18.48;15.52;;;18.20;99.90;;;;;;4990862;28;20104;-81
2023/08/15 04:20:02;;;;;;;18.73;16.75;;;18.40;99.90;;;;;;4981014;28;20481;-81
2023/08/15 04:22:28;;;;;;;20.92;15.02;;;18.20;99.90;;;;;;4991277;28;20735;-81
2023/08/15 04:24:53;;;;;;;17.30;15.38;;;18.30;99.90;;;;;;4990541;28;20050;-81
2023/08/15 04:27:19;;;;;;;16.10;14.50;;;18.30;99.90;;;;;;4987927;28;20250;-80
2023/08/15 04:29:44;;;;;;;15.75;14.13;;;18.30;99.90;;;;;;4972555;28;20053;-80
2023/08/15 04:32:10;;;;;;;18.42;16.25;;;18.30;99.90;;;;;;4982954;28;20053;-83
2023/08/15 04:34:35;;;;;;;23.63;15.68;;;18.40;99.90;;;;;;4990047;28;20051;-83
2023/08/15 04:37:01;;;;;;;20.67;13.05;;;18.40;99.90;;;;;;4973850;28;20531;-83
2023/08/15 04:39:27;;;;;;;17.40;12.70;;;18.40;99.90;;;;;;4980065;28;20454;-83
2023/08/15 04:41:52;;;;;;;15.73;12.18;;;18.40;99.90;;;;;;4990380;28;20141;-83
2023/08/15 04:44:18;;;;;;;14.57;12.23;;;18.40;99.90;;;;;;4988218;28;20444;-83
2023/08/15 04:46:44;;;;;;;16.00;13.50;;;18.40;99.90;;;;;;4990552;28;20054;-83
2023/08/15 04:49:09;;;;;;;16.85;13.65;;;18.40;99.90;;;;;;4990343;28;20061;-84
2023/08/15 04:51:35;;;;;;;15.93;13.05;;;18.40;99.90;;;;;;4990153;28;20465;-83
2023/08/15 04:54:00;;;;;;;18.15;12.98;;;18.40;99.90;;;;;;4989459;28;20339;-85
2023/08/15 04:56:27;;;;;;;18.73;13.23;;;18.40;99.90;;;;;;4988763;28;20054;-83
2023/08/15 04:58:52;;;;;;;22.63;15.10;;;18.40;99.90;;;;;;4990858;28;20189;-84
2023/08/15 05:01:18;;;;;;;18.85;15.35;;;18.40;99.90;;;;;;4989083;28;20129;-84
2023/08/15 05:03:43;;;;;;;17.27;15.07;;;18.40;99.90;;;;;;4973123;28;20054;-84
2023/08/15 05:06:09;;;;;;;20.52;15.38;;;18.40;99.90;;;;;;4973656;28;20096;-84
2023/08/15 05:08:34;;;;;;;17.13;15.43;;;18.40;99.90;;;;;;4989796;28;20132;-84
2023/08/15 05:11:00;;;;;;;17.25;14.70;;;18.40;99.90;;;;;;4979785;28;20053;-84
2023/08/15 05:13:26;;;;;;;19.02;15.55;;;18.40;99.90;;;;;;4979775;28;20404;-87
2023/08/15 05:15:52;;;;;;;18.55;15.55;;;18.40;99.90;;;;;;4988324;28;20596;-84
2023/08/15 05:18:19;;;;;;;19.10;15.27;;;18.40;99.90;;;;;;4990575;28;20162;-85
2023/08/15 05:20:48;;;;;;;17.25;14.13;;;18.40;99.90;;;;;;4966805;28;20200;-85
2023/08/15 05:23:14;;;;;;;18.80;13.85;;;18.40;99.90;;;;;;4989338;28;20428;-85
2023/08/15 05:25:41;;;;;;;19.77;14.90;;;18.40;99.90;;;;;;4982956;28;20401;-85
2023/08/15 05:28:07;;;;;;;17.67;15.43;;;18.50;99.90;;;;;;4989174;28;20595;-85
2023/08/15 05:30:33;;;;;;;19.17;13.45;;;18.50;99.90;;;;;;4980396;28;20125;-85
2023/08/15 05:32:59;;;;;;;15.15;13.57;;;18.50;99.90;;;;;;4988514;28;20096;-85
2023/08/15 05:35:25;;;;;;;17.83;13.90;;;18.50;99.90;;;;;;4989036;28;20153;-85
2023/08/15 05:37:50;;;;;;;16.20;13.10;;;18.50;99.90;;;;;;4990915;28;20133;-84
2023/08/15 05:40:16;;;;;;;17.52;13.30;;;18.60;99.90;;;;;;4990019;28;20062;-84
2023/08/15 05:42:42;;;;;;;14.77;11.07;;;18.90;99.90;;;;;;4988905;28;20529;-85
2023/08/15 05:45:08;;;;;;;14.93;10.68;;;18.60;99.90;;;;;;4990194;28;20417;-85
2023/08/15 05:47:34;;;;;;;11.75;10.40;;;18.60;99.90;;;;;;4983598;28;20082;-84
2023/08/15 05:50:00;;;;;;;13.70;9.95;;;18.60;99.90;;;;;;4989649;28;20085;-84
2023/08/15 05:52:26;;;;;;;13.02;9.90;;;18.60;99.90;;;;;;4990397;28;20096;-84
2023/08/15 05:54:52;;;;;;;14.88;9.32;;;18.60;99.90;;;;;;4988212;28;20113;-84
2023/08/15 05:57:18;;;;;;;11.23;8.80;;;18.60;99.90;;;;;;4954725;28;20047;-84
2023/08/15 05:59:43;;;;;;;12.65;9.60;;;18.70;99.90;;;;;;4989439;28;20116;-85
2023/08/15 06:02:09;;;;;;;15.02;9.52;;;18.90;99.90;;;;;;4980070;28;20505;-85
2023/08/15 06:04:35;;;;;;;12.55;8.50;;;18.90;99.90;;;;;;4986038;28;20045;-83
2023/08/15 06:07:02;;;;;;;14.57;8.38;;;18.90;99.90;;;;;;4988151;28;20080;-83
2023/08/15 06:09:28;;;;;;;13.50;9.43;;;19.00;99.90;;;;;;4989340;28;20053;-81
2023/08/15 06:11:53;;;;;;;12.13;8.50;;;19.30;99.90;;;;;;4990313;28;20050;-81
2023/08/15 06:14:19;;;;;;;9.77;8.63;;;19.60;99.90;;;;;;4989225;28;20061;-81
2023/08/15 06:16:46;;;;;;;9.75;8.30;;;19.50;99.90;;;;;;4989860;28;20050;-81
2023/08/15 06:19:12;;;;;;;9.18;7.45;;;19.30;99.90;;;;;;4989086;28;20092;-81
2023/08/15 06:21:37;;;;;;;9.75;7.70;;;19.20;99.90;;;;;;4987644;28;20489;-81
2023/08/15 06:24:03;;;;;;;10.63;7.45;;;19.10;99.90;;;;;;4988645;28;20038;-81
2023/08/15 06:26:28;;;;;;;10.43;7.50;;;19.00;99.90;;;;;;4989423;28;20053;-81
2023/08/15 06:28:54;;;;;;;11.07;7.40;;;19.00;99.90;;;;;;4989479;28;20054;-81
2023/08/15 06:31:20;;;;;;;11.02;6.88;;;19.10;99.90;;;;;;4989532;28;20100;-81
2023/08/15 06:33:45;;;;;;;8.85;6.15;;;19.20;99.90;;;;;;4988189;28;20053;-81
2023/08/15 06:36:11;;;;;;;11.02;5.68;;;19.20;99.90;;;;;;4970705;28;20047;-81
2023/08/15 06:38:36;;;;;;;10.02;6.00;;;19.30;99.90;;;;;;4970983;28;20043;-81
2023/08/15 06:41:02;;;;;;;7.20;5.30;;;19.30;99.90;;;;;;4988476;28;20097;-81
2023/08/15 06:43:28;;;;;;;8.27;5.13;;;19.40;99.90;;;;;;4981541;28;20054;-81
2023/08/15 06:45:54;;;;;;;10.15;5.03;;;19.40;99.90;;;;;;4971104;28;20425;-81
2023/08/15 06:48:20;;;;;;;9.05;4.90;;;19.40;99.90;;;;;;4988777;28;20093;-81
2023/08/15 06:50:46;;;;;;;9.07;4.70;;;19.60;99.90;;;;;;4988840;28;20046;-81
2023/08/15 06:53:12;;;;;;;10.60;3.90;;;19.60;99.90;;;;;;4988953;28;20909;-80
2023/08/15 06:55:37;;;;;;;7.65;4.30;;;19.80;99.90;;;;;;4989330;28;20046;-80
2023/08/15 06:58:03;;;;;;;8.63;4.30;;;19.80;99.90;;;;;;4987840;28;20148;-80
2023/08/15 07:00:30;;;;;;;9.77;4.25;;;20.00;99.90;;;;;;4988051;28;20654;-80
2023/08/15 07:02:56;;;;;;;6.63;4.13;;;20.10;99.90;;;;;;4989200;28;20062;-80
2023/08/15 07:05:21;;;;;;;7.22;3.83;;;20.20;99.90;;;;;;4970911;28;20069;-80
2023/08/15 07:07:47;;;;;;;8.95;4.15;;;20.30;99.90;;;;;;4988541;28;20094;-80
2023/08/15 07:10:12;;;;;;;8.55;4.25;;;20.60;99.90;;;;;;4988113;28;20051;-80
2023/08/15 07:12:38;;;;;;;9.88;4.18;;;20.40;99.90;;;;;;4987981;28;20042;-80
2023/08/15 07:15:04;;;;;;;6.97;3.72;;;20.50;99.90;;;;;;4988774;28;20103;-80
2023/08/15 07:17:30;;;;;;;8.63;3.80;;;20.60;99.90;;;;;;4987871;28;20041;-81
2023/08/15 07:19:56;;;;;;;6.13;3.55;;;20.70;99.90;;;;;;4971538;28;20046;-80
2023/08/15 07:22:21;;;;;;;12.05;3.58;;;20.80;99.90;;;;;;4987494;28;20046;-80
2023/08/15 07:24:47;;;;;;;6.85;3.42;;;20.80;99.90;;;;;;4988311;28;20048;-81
2023/08/15 07:27:12;;;;;;;6.70;3.22;;;20.80;99.90;;;;;;4970882;28;20177;-81
2023/08/15 07:29:38;;;;;;;8.43;3.50;;;21.00;99.90;;;;;;4988190;28;20079;-80
2023/08/15 07:32:06;;;;;;;8.85;3.53;;;21.20;99.90;;;;;;4986910;28;20054;-80
2023/08/15 07:34:32;;;;;;;8.63;3.78;;;21.30;99.90;;;;;;4986692;28;20560;-82
2023/08/15 07:36:57;;;;;;;10.63;3.75;;;21.50;99.90;;;;;;4987393;28;20177;-82
2023/08/15 07:39:23;;;;;;;8.98;3.88;;;21.60;99.90;;;;;;4987681;28;20089;-82
2023/08/15 07:41:49;;;;;;;7.63;3.60;;;21.70;99.90;;;;;;4986263;28;20066;-82
2023/08/15 07:44:14;;;;;;;8.43;3.72;;;21.80;99.90;;;;;;4986863;28;20054;-83
2023/08/15 07:46:40;;;;;;;10.45;4.28;;;21.50;99.90;;;;;;4988506;28;20058;-82
2023/08/15 07:49:06;;;;;;;7.30;3.85;;;21.30;99.90;;;;;;4991036;28;20042;-82
2023/08/15 07:51:31;;;;;;;6.40;4.40;;;21.30;99.90;;;;;;4990195;28;20044;-81
2023/08/15 07:53:57;;;;;;;8.02;4.55;;;21.20;99.90;;;;;;4991613;28;20077;-81
2023/08/15 07:56:23;;;;;;;7.18;4.13;;;21.10;99.90;;;;;;4992063;28;20404;-80
2023/08/15 07:58:48;;;;;;;6.93;4.38;;;21.10;99.90;;;;;;4992352;28;20038;-79
2023/08/15 08:01:14;;;;;;;8.50;4.22;;;21.20;99.90;;;;;;4992279;28;20053;-79
2023/08/15 08:03:42;;;;;;;7.18;3.53;;;21.40;99.90;;;;;;4992012;28;20038;-79
2023/08/15 08:06:08;;;;;;;7.68;3.40;;;21.70;99.90;;;;;;4990923;28;20045;-78
2023/08/15 08:08:34;;;;;;;6.43;4.05;;;21.80;99.90;;;;;;4990593;28;20061;-77
2023/08/15 08:10:59;;;;;;;5.07;3.40;;;22.00;99.90;;;;;;4992632;28;20042;-78
2023/08/15 08:13:25;;;;;;;6.32;2.97;;;22.00;99.90;;;;;;4991638;28;20065;-78
2023/08/15 08:15:50;;;;;;;3.72;2.50;;;22.10;99.90;;;;;;4992364;28;20408;-79
2023/08/15 08:18:16;;;;;;;7.05;3.03;;;22.00;99.90;;;;;;4989856;28;20057;-80
2023/08/15 08:20:42;;;;;;;5.10;2.70;;;21.90;99.90;;;;;;4991423;28;20428;-81
2023/08/15 08:23:08;;;;;;;7.15;3.47;;;21.70;99.90;;;;;;4991997;28;20516;-81
2023/08/15 08:25:33;;;;;;;5.82;3.45;;;21.60;99.90;;;;;;4991215;28;20561;-80
2023/08/15 08:27:59;;;;;;;6.50;3.60;;;21.70;99.90;;;;;;4991377;28;20161;-80
2023/08/15 08:30:25;;;;;;;8.55;4.05;;;21.70;99.90;;;;;;4991237;28;20118;-80
2023/08/15 08:32:51;;;;;;;6.70;3.42;;;21.80;99.90;;;;;;4992118;28;20050;-81
2023/08/15 08:35:17;;;;;;;10.05;3.75;;;21.80;99.90;;;;;;4991378;28;20045;-81
2023/08/15 08:37:44;;;;;;;6.88;4.10;;;22.10;99.90;;;;;;4991935;28;20054;-81
2023/08/15 08:40:12;;;;;;;8.23;4.13;;;22.10;99.90;;;;;;4990531;28;20050;-81
2023/08/15 08:42:40;;;;;;;5.85;3.83;;;22.10;99.90;;;;;;4991919;28;20053;-81
2023/08/15 08:45:07;;;;;;;6.03;4.03;;;22.00;99.90;;;;;;4989605;28;20128;-80
2023/08/15 08:47:33;;;;;;;7.20;3.92;;;22.00;99.90;;;;;;4991579;28;20087;-81
2023/08/15 08:50:00;;;;;;;5.13;4.25;;;22.20;99.90;;;;;;4991633;28;20124;-81
2023/08/15 08:52:27;;;;;;;8.10;4.35;;;22.30;99.90;;;;;;4989666;28;20049;-81
2023/08/15 08:54:53;;;;;;;14.02;4.47;;;22.30;99.90;;;;;;4991512;28;20084;-81
2023/08/15 08:57:20;;;;;;;6.25;4.10;;;22.60;99.90;;;;;;4991109;28;20038;-81
2023/08/15 08:59:46;;;;;;;6.55;4.15;;;22.30;99.90;;;;;;4990517;28;20043;-81
2023/08/15 09:02:15;;;;;;;6.10;4.22;;;22.20;99.90;;;;;;4991390;28;20143;-81
2023/08/15 09:04:41;;;;;;;7.43;3.92;;;22.40;99.90;;;;;;4991351;28;20408;-82
2023/08/15 09:07:07;;;;;;;6.55;3.70;;;22.30;99.90;;;;;;4991497;28;20042;-81
2023/08/15 09:09:33;;;;;;;7.75;3.40;;;22.40;99.90;;;;;;4990868;28;20400;-82
2023/08/15 09:11:58;;;;;;;7.22;3.65;;;22.80;99.90;;;;;;4991060;28;20050;-79
2023/08/15 09:14:24;;;;;;;6.45;3.47;;;22.70;99.90;;;;;;4991145;28;20416;-81
2023/08/15 09:16:50;;;;;;;6.57;3.83;;;23.10;99.90;;;;;;4989915;28;20138;-81
2023/08/15 09:19:16;;;;;;;6.95;3.65;;;22.90;99.90;;;;;;4990655;28;20046;-80
2023/08/15 09:21:42;;;;;;;6.57;3.35;;;22.80;99.90;;;;;;4989862;28;20046;-80
2023/08/15 09:24:08;;;;;;;6.10;3.38;;;22.80;99.90;;;;;;4989408;28;20042;-81
2023/08/15 09:26:35;;;;;;;5.05;3.10;;;22.70;99.90;;;;;;4990425;28;20717;-80
2023/08/15 09:29:02;;;;;;;4.60;2.70;;;22.90;99.90;;;;;;4979214;28;20413;-81
2023/08/15 09:31:28;;;;;;;6.93;3.30;;;23.10;99.90;;;;;;4971179;28;20055;-81
2023/08/15 09:33:54;;;;;;;5.38;3.13;;;23.40;99.90;;;;;;4972977;28;20061;-82
2023/08/15 09:36:22;;;;;;;5.03;2.53;;;23.50;99.90;;;;;;4988572;28;20039;-81
2023/08/15 09:38:51;;;;;;;3.63;2.33;;;23.60;99.90;;;;;;4990447;28;20192;-81
2023/08/15 09:41:18;;;;;;;4.50;2.55;;;23.60;99.90;;;;;;4990638;28;20050;-81
2023/08/15 09:43:50;;;;;;;4.70;2.65;;;23.60;99.90;;;;;;4988788;28;20054;-81
2023/08/15 09:46:20;;;;;;;3.50;2.45;;;23.70;99.90;;;;;;4990188;28;20046;-81
2023/08/15 09:48:47;;;;;;;6.55;2.88;;;23.70;99.90;;;;;;4990373;28;20042;-82
2023/08/15 09:51:15;;;;;;;6.82;2.88;;;23.60;99.90;;;;;;4989023;28;20501;-80
2023/08/15 09:53:43;;;;;;;3.92;2.15;;;23.60;99.90;;;;;;4989901;28;20062;-81
2023/08/15 09:56:09;;;;;;;4.78;2.80;;;23.40;99.90;;;;;;4985507;28;20042;-84
2023/08/15 09:58:34;;;;;;;6.05;2.72;;;23.40;99.90;;;;;;4979092;28;20572;-81
2023/08/15 10:01:02;;;;;;;4.40;2.20;;;23.40;99.90;;;;;;4987122;28;20086;-80
2023/08/15 10:03:41;;;;;;;4.97;2.00;;;23.10;99.90;;;;;;4990068;28;20045;-81
2023/08/15 10:06:09;;;;;;;4.32;1.92;;;23.10;99.90;;;;;;4988685;28;20081;-80
2023/08/15 10:08:39;;;;;;;4.97;2.10;;;23.00;99.90;;;;;;4985825;28;20877;-81
2023/08/15 10:11:07;;;;;;;4.55;1.92;;;23.00;99.90;;;;;;4989151;28;20081;-81
2023/08/15 10:13:37;;;;;;;5.45;1.95;;;23.00;99.90;;;;;;4989812;28;20097;-81
2023/08/15 10:16:05;;;;;;;5.65;2.00;;;23.30;99.90;;;;;;4989364;28;20050;-83
2023/08/15 10:18:31;;;;;;;4.97;1.95;;;23.50;99.90;;;;;;4988101;28;20050;-83
2023/08/15 10:20:57;;;;;;;4.93;1.80;;;23.60;99.90;;;;;;4986593;28;20046;-82
2023/08/15 10:23:31;;;;;;;2.95;1.30;;;23.90;99.90;;;;;;4983133;28;20056;-81
2023/08/15 10:25:58;;;;;;;2.70;1.50;;;23.90;99.90;;;;;;4981701;28;20059;-81
2023/08/15 10:28:27;;;;;;;2.72;1.38;;;24.00;99.90;;;;;;4984376;28;20047;-82
2023/08/15 10:30:53;;;;;;;5.13;1.60;;;24.10;99.90;;;;;;4988989;28;20046;-82
2023/08/15 10:33:22;;;;;;;4.25;1.90;;;24.30;99.90;;;;;;4988715;28;20057;-79
2023/08/15 10:35:54;;;;;;;4.32;1.60;;;24.40;99.90;;;;;;4986892;28;20509;-80
2023/08/15 10:38:30;;;;;;;;;;;24.50;99.90;;;;;;4987456;28;20475;-80
2023/08/15 10:41:04;;;;;;;5.40;1.90;;;24.30;99.90;;;;;;4986449;28;19922;-81
2023/08/15 10:43:32;;;;;;;3.63;1.58;;;24.20;99.90;;;;;;4984994;28;20043;-78
2023/08/15 10:46:00;;;;;;;2.92;1.60;;;24.10;99.90;;;;;;4975544;28;20122;-80
2023/08/15 10:48:54;;;;;;;3.70;1.67;;;24.20;99.90;;;;;;4988906;28;20050;-80
2023/08/15 10:51:25;;;;;;;5.07;1.83;;;24.20;99.90;;;;;;4987182;28;20404;-81
2023/08/15 10:53:52;;;;;;;6.88;2.55;;;24.30;99.90;;;;;;4988587;28;20042;-82
2023/08/15 10:56:22;;;;;;;5.40;2.10;;;24.20;99.90;;;;;;4987596;28;20074;-82
2023/08/15 10:58:49;;;;;;;5.75;1.85;;;24.30;99.90;;;;;;4984503;28;20054;-82
2023/08/15 11:01:19;;;;;;;5.70;2.00;;;24.60;99.90;;;;;;4983948;28;20413;-82
2023/08/15 11:03:50;;;;;;;5.10;1.83;;;24.60;99.90;;;;;;4969326;28;20042;-82
2023/08/15 11:06:17;;;;;;;4.47;1.90;;;24.60;99.90;;;;;;4976594;28;20117;-82
2023/08/15 11:08:57;;;;;;;5.03;2.00;;;24.50;99.90;;;;;;4988944;28;20047;-81
2023/08/15 11:11:23;;;;;;;3.28;1.70;;;24.60;99.90;;;;;;4978773;28;20571;-80
2023/08/15 11:13:51;;;;;;;3.08;1.85;;;24.50;99.90;;;;;;4969399;28;20107;-82
2023/08/15 11:16:19;;;;;;;4.85;1.95;;;24.50;99.90;;;;;;4976813;28;20080;-82
2023/08/15 11:18:46;;;;;;;4.07;1.88;;;24.60;99.90;;;;;;4986440;28;20038;-82
2023/08/15 11:21:13;;;;;;;3.53;1.63;;;24.50;99.90;;;;;;4987674;28;20048;-82
2023/08/15 11:23:40;;;;;;;4.38;1.90;;;24.40;99.90;;;;;;4986245;28;20101;-81
2023/08/15 11:26:11;;;;;;;5.63;1.92;;;24.40;99.90;;;;;;4989046;28;20046;-82
2023/08/15 11:28:37;;;;;;;5.07;2.42;;;24.40;99.90;;;;;;4988224;28;20038;-81
2023/08/15 11:31:16;;;;;;;4.55;2.38;;;24.30;99.90;;;;;;4987101;28;20050;-81
2023/08/15 11:33:42;;;;;;;7.05;2.13;;;24.30;99.90;;;;;;4968978;28;20057;-84
2023/08/15 11:36:10;;;;;;;4.47;1.95;;;24.20;99.90;;;;;;4971462;28;20069;-81
2023/08/15 11:38:37;;;;;;;5.35;2.40;;;24.30;99.90;;;;;;4986990;28;20046;-80
2023/08/15 11:41:04;;;;;;;3.90;2.20;;;24.40;99.90;;;;;;4987494;28;20169;-80
2023/08/15 11:43:30;;;;;;;6.65;2.45;;;24.40;99.90;;;;;;4985438;28;20532;-81
2023/08/15 11:46:00;;;;;;;4.65;2.08;;;24.50;99.90;;;;;;4984798;28;20042;-80
2023/08/15 11:48:25;;;;;;;5.40;2.47;;;24.70;99.90;;;;;;4984779;28;20050;-80
2023/08/15 11:50:51;;;;;;;6.20;2.22;;;24.30;99.90;;;;;;4984900;28;20046;-79
2023/08/15 11:53:18;;;;;;;5.57;2.58;;;24.30;99.90;;;;;;4986186;28;20400;-80
2023/08/15 11:55:45;;;;;;;5.25;2.42;;;24.50;99.90;;;;;;4986641;28;20104;-81
2023/08/15 11:58:31;;;;;;;4.63;2.17;;;24.50;99.90;;;;;;4976225;28;20170;-80
2023/08/15 12:01:02;;;;;;;5.70;2.53;;;24.50;99.90;;;;;;4965950;28;20074;-81
2023/08/15 12:03:29;;;;;;;5.30;2.30;;;24.50;99.90;;;;;;4965895;28;20461;-81
2023/08/15 12:05:56;;;;;;;4.50;2.13;;;24.60;99.90;;;;;;4967710;28;20286;-81
2023/08/15 12:08:26;;;;;;;4.78;2.30;;;24.50;99.90;;;;;;4979047;28;20101;-80
2023/08/15 12:10:56;;;;;;;3.90;1.88;;;24.70;99.90;;;;;;4988149;28;20096;-81
2023/08/15 12:13:33;;;;;;;5.90;1.95;;;24.80;99.90;;;;;;4984664;28;20050;-81
2023/08/15 12:16:01;;;;;;;6.43;2.35;;;24.80;99.90;;;;;;4970549;28;20137;-81
2023/08/15 12:18:26;;;;;;;6.97;2.10;;;24.90;99.90;;;;;;4981212;28;20050;-81
2023/08/15 12:20:52;;;;;;;4.65;2.30;;;25.00;99.90;;;;;;4987914;28;20444;-82
2023/08/15 12:23:18;;;;;;;3.33;1.60;;;24.80;99.90;;;;;;4987580;28;20050;-82
2023/08/15 12:25:44;;;;;;;2.85;2.00;;;24.80;99.90;;;;;;4986936;28;20408;-81
2023/08/15 12:28:09;;;;;;;4.93;2.10;;;24.50;99.90;;;;;;4987822;28;20042;-80
2023/08/15 12:30:35;;;;;;;5.32;2.67;;;24.80;99.90;;;;;;4987655;28;20054;-80
2023/08/15 12:33:01;;;;;;;6.00;2.85;;;24.70;99.90;;;;;;4978863;28;20374;-79
2023/08/15 12:35:26;;;;;;;4.20;2.40;;;24.60;99.90;;;;;;4969917;28;20069;-79